Time;durP1;ratioP1;P1;durP2;ratioP2;P2;SDS_P1;SDS_P2;PMS_P1;PMS_P2;Temp;Humidity;BMP_temperature;BMP_pressure;BME280_temperature;BME280_humidity;BME280_pressure;Samples;Min_cycle;Max_cycle;Signal;HPM_P1;HPM_P2
2022/12/07 00:01:57;;;;;;;;;67.25;52.50;;;;;12.65;59.96;99294.34;4848136;29;8886;-79
2022/12/07 00:04:26;;;;;;;;;56.25;46.00;;;;;12.63;60.38;99290.88;4878642;29;8894;-81
2022/12/07 00:06:55;;;;;;;;;64.75;49.50;;;;;12.44;60.48;99293.72;4881507;29;8919;-79
2022/12/07 00:09:23;;;;;;;;;62.75;48.75;;;;;12.60;60.29;99289.16;4881354;29;8950;-79
2022/12/07 00:11:52;;;;;;;;;62.75;50.00;;;;;12.42;59.97;99285.03;4865439;29;9004;-79
2022/12/07 00:14:22;;;;;;;;;62.75;51.00;;;;;12.52;60.24;99275.31;4881946;29;8890;-79
2022/12/07 00:16:52;;;;;;;;;61.75;48.50;;;;;12.47;60.27;99270.13;4896251;29;9001;-78
2022/12/07 00:19:21;;;;;;;;;55.25;43.75;;;;;12.19;60.71;99284.44;4865474;29;8990;-77
2022/12/07 00:21:49;;;;;;;;;60.75;45.50;;;;;12.33;60.58;99282.53;4880670;29;8898;-79
2022/12/07 00:24:18;;;;;;;;;56.00;45.25;;;;;12.21;60.33;99280.94;4865726;29;8887;-78
2022/12/07 00:26:46;;;;;;;;;57.25;41.00;;;;;12.20;60.67;99276.56;4874669;29;8997;-80
2022/12/07 00:29:18;;;;;;;;;56.50;43.00;;;;;12.03;61.30;99278.53;4914560;29;8958;-79
2022/12/07 00:31:48;;;;;;;;;58.25;45.75;;;;;11.76;62.92;99283.13;4895076;29;8881;-79
2022/12/07 00:34:19;;;;;;;;;55.25;45.25;;;;;11.78;62.04;99288.34;4894524;29;8862;-80
2022/12/07 00:36:49;;;;;;;;;50.75;43.75;;;;;11.83;61.92;99283.91;4890386;29;8899;-78
2022/12/07 00:39:17;;;;;;;;;57.50;46.75;;;;;11.87;62.53;99286.50;4913611;29;8996;-78
2022/12/07 00:41:46;;;;;;;;;49.25;42.25;;;;;11.85;62.88;99276.91;4915916;29;8884;-78
2022/12/07 00:44:15;;;;;;;;;57.50;46.00;;;;;11.54;62.96;99279.81;4919217;29;8950;-79
2022/12/07 00:46:45;;;;;;;;;55.50;42.75;;;;;11.61;62.72;99281.50;4928633;29;8938;-78
2022/12/07 00:49:15;;;;;;;;;58.00;45.00;;;;;11.22;64.79;99275.72;4909295;29;8958;-78
2022/12/07 00:51:43;;;;;;;;;55.50;45.75;;;;;11.50;63.88;99278.13;4921173;29;8929;-78
2022/12/07 00:54:12;;;;;;;;;56.00;44.50;;;;;11.22;64.78;99282.69;4911091;29;8899;-78
2022/12/07 00:56:41;;;;;;;;;54.75;43.25;;;;;11.17;64.81;99282.75;4895057;29;8904;-79
2022/12/07 00:59:14;;;;;;;;;49.50;39.50;;;;;11.24;64.73;99291.38;4878464;29;8912;-78
2022/12/07 01:01:42;;;;;;;;;54.75;43.75;;;;;11.17;64.80;99287.06;4878943;29;8893;-78
2022/12/07 01:04:11;;;;;;;;;49.50;42.00;;;;;11.02;64.65;99272.38;4884967;29;8938;-80
2022/12/07 01:06:41;;;;;;;;;43.25;39.00;;;;;10.95;65.27;99276.81;4877370;29;8918;-80
2022/12/07 01:09:09;;;;;;;;;47.75;40.25;;;;;11.01;64.48;99278.50;4877748;29;8990;-78
2022/12/07 01:11:38;;;;;;;;;54.75;41.25;;;;;10.84;65.58;99270.78;4893634;29;8897;-80
2022/12/07 01:14:07;;;;;;;;;48.50;39.75;;;;;11.01;65.08;99275.91;4862314;29;8890;-78
2022/12/07 01:16:35;;;;;;;;;49.00;41.25;;;;;11.02;64.85;99268.06;4874668;29;8925;-78
2022/12/07 01:19:05;;;;;;;;;45.75;38.25;;;;;11.09;64.76;99268.88;4859063;29;8896;-79
2022/12/07 01:21:37;;;;;;;;;54.50;39.50;;;;;11.09;64.66;99259.28;4872793;29;8899;-80
2022/12/07 01:24:11;;;;;;;;;44.00;39.00;;;;;11.00;65.03;99264.59;4877190;29;8894;-78
2022/12/07 01:26:39;;;;;;;;;42.75;36.50;;;;;10.93;64.83;99266.38;4892430;29;9161;-79
2022/12/07 01:29:08;;;;;;;;;48.25;39.25;;;;;11.04;64.65;99268.91;4839373;29;8899;-81
2022/12/07 01:31:36;;;;;;;;;49.75;39.25;;;;;11.11;64.25;99270.59;4855061;29;9827;-79
2022/12/07 01:34:05;;;;;;;;;40.25;34.75;;;;;11.36;64.09;99270.41;4855801;29;8868;-77
2022/12/07 01:36:36;;;;;;;;;37.25;35.00;;;;;11.19;63.93;99269.66;4839355;29;9597;-79
2022/12/07 01:39:08;;;;;;;;;35.60;33.60;;;;;11.19;63.69;99267.06;4826524;29;8916;-78
2022/12/07 01:41:40;;;;;;;;;38.80;36.40;;;;;11.17;63.48;99253.16;4846236;29;8891;-80
2022/12/07 01:44:16;;;;;;;;;45.00;36.40;;;;;10.96;65.06;99256.78;4847182;29;8916;-79
2022/12/07 01:46:46;;;;;;;;;38.25;33.75;;;;;10.95;64.83;99242.88;4857620;29;8961;-79
2022/12/07 01:49:29;;;;;;;;;37.20;32.40;;;;;11.20;64.29;99248.78;4882822;29;8879;-78
2022/12/07 01:52:07;;;;;;;;;44.50;39.25;;;;;11.05;64.07;99246.28;4861167;29;8891;-79
2022/12/07 01:54:37;;;;;;;;;43.25;36.75;;;;;10.81;65.00;99245.59;4861199;29;8874;-78
2022/12/07 01:57:09;;;;;;;;;23.00;19.80;;;;;10.97;64.21;99250.72;4842126;29;8989;-79
2022/12/07 01:59:38;;;;;;;;;37.80;35.60;;;;;10.84;64.64;99239.47;4891974;29;8891;-80
2022/12/07 02:02:14;;;;;;;;;42.75;37.00;;;;;11.05;64.31;99238.47;4876137;29;8895;-81
2022/12/07 02:04:43;;;;;;;;;41.40;33.80;;;;;11.03;63.95;99242.81;4891604;29;8883;-79
2022/12/07 02:07:12;;;;;;;;;39.40;31.40;;;;;11.01;63.76;99258.47;4920854;29;8906;-78
2022/12/07 02:09:43;;;;;;;;;44.40;35.20;;;;;10.96;63.83;99254.19;4913153;29;8887;-78
2022/12/07 02:12:11;;;;;;;;;34.20;30.60;;;;;11.09;63.81;99251.47;4911981;29;8868;-78
2022/12/07 02:14:40;;;;;;;;;31.20;27.80;;;;;10.92;63.67;99242.88;4911548;29;8875;-78
2022/12/07 02:17:16;;;;;;;;;29.00;27.20;;;;;10.91;63.10;99236.81;4895629;29;8902;-79
2022/12/07 02:20:14;;;;;;;;;28.20;25.20;;;;;10.86;64.22;99230.75;4912838;29;8867;-79
2022/12/07 02:23:20;;;;;;;;;16.00;12.60;;;;;10.79;63.88;99228.19;4823925;29;8925;-80
2022/12/07 02:26:20;;;;;;;;;38.60;30.60;;;;;10.47;64.94;99229.25;4728302;30;8889;-78
2022/12/07 02:29:13;;;;;;;;;33.00;31.20;;;;;10.59;65.52;99233.56;4679005;30;8892;-79
2022/12/07 02:31:48;;;;;;;;;31.20;28.60;;;;;10.54;64.81;99233.56;4685214;30;9116;-78
2022/12/07 02:34:26;;;;;;;;;36.20;32.60;;;;;10.59;64.71;99229.19;4713908;30;9001;-77
2022/12/07 02:36:58;;;;;;;;;36.40;30.40;;;;;10.41;65.41;99240.56;4705928;30;8912;-79
2022/12/07 02:39:35;;;;;;;;;38.40;36.80;;;;;10.69;64.75;99230.88;4680212;30;9023;-77
2022/12/07 02:42:13;;;;;;;;;26.40;19.60;;;;;10.59;65.01;99226.59;4679126;30;8915;-78
2022/12/07 02:44:44;;;;;;;;;35.40;31.80;;;;;10.51;65.09;99215.34;4692289;30;9030;-78
2022/12/07 02:47:18;;;;;;;;;39.40;35.40;;;;;10.62;65.13;99229.16;4693811;30;8945;-78
2022/12/07 02:49:47;;;;;;;;;38.80;32.80;;;;;10.46;64.96;99228.41;4693451;30;8937;-77
2022/12/07 02:52:16;;;;;;;;;34.40;28.00;;;;;10.63;64.84;99219.63;4693143;30;9086;-79
2022/12/07 02:54:44;;;;;;;;;31.40;29.60;;;;;10.51;65.36;99217.97;4693661;30;8897;-78
2022/12/07 02:57:29;;;;;;;;;28.40;27.00;;;;;10.51;65.39;99211.00;4679051;30;8901;-77
2022/12/07 03:00:06;;;;;;;;;27.20;23.40;;;;;10.58;64.71;99213.56;4711867;30;8884;-79
2022/12/07 03:02:49;;;;;;;;;24.00;21.40;;;;;10.70;65.24;99216.97;4768751;29;8996;-79
2022/12/07 03:05:53;;;;;;;;;19.60;17.80;;;;;10.78;64.68;99216.06;4840748;29;8855;-78
2022/12/07 03:08:32;;;;;;;;;17.40;17.40;;;;;10.80;64.18;99219.50;4895763;29;8863;-80
2022/12/07 03:11:04;;;;;;;;;17.40;16.20;;;;;10.40;65.81;99214.53;4912431;29;8867;-80
2022/12/07 03:13:39;;;;;;;;;18.40;17.00;;;;;10.44;65.37;99211.91;4879140;29;8871;-78
2022/12/07 03:16:16;;;;;;;;;23.20;17.40;;;;;10.48;64.38;99205.78;4910805;29;8864;-78
2022/12/07 03:18:48;;;;;;;;;19.40;17.60;;;;;10.14;65.71;99210.28;4911626;29;8906;-79
2022/12/07 03:21:21;;;;;;;;;16.80;16.80;;;;;10.13;65.82;99203.31;4913210;29;8871;-78
2022/12/07 03:23:54;;;;;;;;;16.40;15.60;;;;;10.31;65.48;99205.03;4864430;29;8876;-79
2022/12/07 03:26:29;;;;;;;;;15.80;13.80;;;;;10.34;65.46;99200.66;4921544;29;8875;-77
2022/12/07 03:29:02;;;;;;;;;16.80;15.80;;;;;10.58;64.42;99188.34;4930127;29;8986;-78
2022/12/07 03:31:36;;;;;;;;;16.00;14.20;;;;;10.64;64.17;99182.22;4916949;29;9606;-79
2022/12/07 03:34:12;;;;;;;;;15.40;15.00;;;;;10.69;64.11;99185.69;4911984;29;8895;-80
2022/12/07 03:36:48;;;;;;;;;10.80;10.80;;;;;10.76;63.72;99170.88;4911799;29;8887;-78
2022/12/07 03:39:23;;;;;;;;;18.00;13.60;;;;;10.61;63.95;99175.31;4912895;29;8880;-78
2022/12/07 03:41:53;;;;;;;;;16.60;16.00;;;;;10.49;64.49;99177.97;4872035;29;8887;-82
2022/12/07 03:44:24;;;;;;;;;12.80;12.80;;;;;10.38;64.74;99182.38;4856559;29;8879;-78
2022/12/07 03:47:02;;;;;;;;;10.60;10.00;;;;;10.46;65.02;99180.63;4841267;29;8876;-78
2022/12/07 03:49:38;;;;;;;;;12.00;8.80;;;;;10.32;65.30;99181.56;4849174;29;8919;-78
2022/12/07 03:52:13;;;;;;;;;12.40;11.20;;;;;10.11;65.64;99171.19;4811662;29;8897;-78
2022/12/07 03:54:48;;;;;;;;;16.20;14.00;;;;;10.20;65.81;99168.56;4839211;29;8882;-78
2022/12/07 03:57:18;;;;;;;;;16.20;13.00;;;;;10.12;65.23;99171.19;4871827;29;8886;-76
2022/12/07 03:59:47;;;;;;;;;14.80;14.80;;;;;10.05;66.20;99168.63;4838974;29;8902;-79
2022/12/07 04:02:18;;;;;;;;;15.60;13.60;;;;;10.08;65.96;99166.03;4868975;29;8889;-78
2022/12/07 04:04:47;;;;;;;;;17.80;15.20;;;;;10.17;65.72;99165.09;4805439;29;8888;-78
2022/12/07 04:07:16;;;;;;;;;14.80;14.80;;;;;10.12;65.91;99176.41;4853945;29;8892;-78
2022/12/07 04:09:44;;;;;;;;;15.80;13.00;;;;;10.24;65.83;99174.63;4838546;29;9075;-80
2022/12/07 04:12:13;;;;;;;;;14.20;14.20;;;;;10.33;65.23;99174.59;4847304;29;9053;-79
2022/12/07 04:14:42;;;;;;;;;17.80;15.60;;;;;10.27;65.21;99172.00;4895186;29;8883;-78
2022/12/07 04:17:10;;;;;;;;;13.80;12.40;;;;;10.13;66.02;99165.13;4879653;29;8899;-79
2022/12/07 04:19:40;;;;;;;;;19.60;16.40;;;;;10.14;65.67;99160.78;4875472;29;8883;-78
2022/12/07 04:22:09;;;;;;;;;19.20;16.00;;;;;10.11;65.59;99158.16;4935138;29;8902;-78
2022/12/07 04:24:37;;;;;;;;;18.20;14.60;;;;;10.06;66.09;99149.53;4923890;29;8977;-78
2022/12/07 04:27:06;;;;;;;;;19.80;18.00;;;;;10.00;66.58;99150.44;4867373;29;8883;-80
2022/12/07 04:29:35;;;;;;;;;17.00;14.00;;;;;10.16;65.62;99148.59;4900432;29;8870;-78
2022/12/07 04:32:03;;;;;;;;;18.20;14.20;;;;;9.93;66.37;99140.91;4896204;29;8894;-78
2022/12/07 04:34:32;;;;;;;;;16.40;14.80;;;;;10.07;65.86;99149.50;4910361;29;8917;-80
2022/12/07 04:37:02;;;;;;;;;17.60;16.80;;;;;10.26;65.51;99152.00;4894547;29;8870;-78
2022/12/07 04:39:33;;;;;;;;;20.40;18.80;;;;;10.17;65.64;99139.03;4902422;29;8875;-78
2022/12/07 04:42:02;;;;;;;;;16.80;15.80;;;;;10.38;64.66;99136.34;4914443;29;8875;-79
2022/12/07 04:44:31;;;;;;;;;14.60;12.60;;;;;10.25;65.14;99143.34;4913949;29;9690;-78
2022/12/07 04:47:00;;;;;;;;;13.80;13.20;;;;;10.33;65.16;99136.38;4930395;29;8855;-79
2022/12/07 04:49:29;;;;;;;;;15.80;14.80;;;;;10.14;65.27;99137.31;4904851;29;8896;-79
2022/12/07 04:51:57;;;;;;;;;12.40;12.20;;;;;10.20;65.21;99129.47;4880576;29;9010;-79
2022/12/07 04:54:27;;;;;;;;;13.00;11.40;;;;;10.19;65.32;99134.69;4879706;29;8890;-79
2022/12/07 04:56:56;;;;;;;;;30.60;24.80;;;;;10.14;65.06;99132.97;4902706;29;8901;-79
2022/12/07 04:59:25;;;;;;;;;13.40;13.40;;;;;10.06;65.59;99128.69;4897569;29;8875;-79
2022/12/07 05:01:53;;;;;;;;;17.80;16.80;;;;;9.90;66.29;99136.56;4913291;29;8894;-79
2022/12/07 05:04:22;;;;;;;;;11.40;9.60;;;;;9.95;66.09;99137.41;4913008;29;8839;-78
2022/12/07 05:06:50;;;;;;;;;13.80;13.80;;;;;10.24;65.37;99132.91;4928359;29;8887;-79
2022/12/07 05:09:19;;;;;;;;;19.80;16.60;;;;;10.08;65.81;99132.16;4900703;29;8858;-79
2022/12/07 05:11:49;;;;;;;;;16.20;15.60;;;;;10.34;65.20;99134.66;4910486;29;8878;-78
2022/12/07 05:14:20;;;;;;;;;27.80;27.00;;;;;10.49;64.86;99129.34;4911171;29;9645;-78
2022/12/07 05:16:51;;;;;;;;;19.40;16.80;;;;;10.65;63.75;99124.84;4933803;29;8914;-79
2022/12/07 05:19:20;;;;;;;;;19.80;18.60;;;;;10.56;64.75;99119.69;4876527;29;8866;-77
2022/12/07 05:21:49;;;;;;;;;15.40;13.60;;;;;10.61;63.75;99119.69;4894354;29;9032;-77
2022/12/07 05:24:18;;;;;;;;;16.20;16.20;;;;;10.61;64.38;99104.91;4878378;29;8862;-79
2022/12/07 05:26:47;;;;;;;;;19.00;18.80;;;;;10.50;64.35;99091.94;4893076;29;8898;-79
2022/12/07 05:29:18;;;;;;;;;16.00;14.40;;;;;10.52;64.64;99097.16;4886576;29;8877;-79
2022/12/07 05:31:47;;;;;;;;;18.40;16.80;;;;;10.53;64.25;99097.13;4893166;29;8862;-78
2022/12/07 05:34:15;;;;;;;;;15.40;13.20;;;;;10.31;64.99;99098.16;4878346;29;8901;-78
2022/12/07 05:36:44;;;;;;;;;17.00;16.40;;;;;10.49;64.10;99108.47;4895118;29;8886;-79
2022/12/07 05:39:13;;;;;;;;;17.80;15.60;;;;;10.27;64.96;99110.31;4894054;29;8872;-79
2022/12/07 05:44:29;;;;;;;;;70.00;55.25;;;;;10.82;63.62;99122.13;4905309;29;8894;-79
2022/12/07 05:46:57;;;;;;;;;40.25;34.50;;;;;10.96;62.81;99118.50;4893513;29;8874;-79
2022/12/07 05:49:26;;;;;;;;;22.40;21.20;;;;;10.90;63.02;99104.63;4893524;29;8901;-81
2022/12/07 05:51:55;;;;;;;;;17.40;17.40;;;;;10.93;62.35;99109.00;4893139;29;8893;-79
2022/12/07 05:54:24;;;;;;;;;18.60;17.60;;;;;10.84;63.46;99102.09;4880355;29;8908;-78
2022/12/07 05:56:52;;;;;;;;;17.20;17.20;;;;;10.79;62.97;99108.22;4894126;29;8979;-80
2022/12/07 05:59:23;;;;;;;;;16.40;16.00;;;;;10.74;62.84;99121.31;4909987;29;8877;-80
2022/12/07 06:01:54;;;;;;;;;23.20;21.20;;;;;10.47;63.80;99112.84;4890400;29;8890;-77
2022/12/07 06:04:24;;;;;;;;;22.60;20.00;;;;;10.79;62.79;99111.69;4876223;29;8876;-79
2022/12/07 06:06:54;;;;;;;;;26.00;22.00;;;;;10.52;64.03;99108.44;4868778;29;8906;-79
2022/12/07 06:09:25;;;;;;;;;26.00;18.40;;;;;10.56;63.61;99111.88;4926379;29;8915;-80
2022/12/07 06:14:40;;;;;;;;;23.20;19.00;;;;;10.53;63.60;99118.00;4879385;29;8896;-78
2022/12/07 06:17:11;;;;;;;;;28.40;26.60;;;;;10.55;63.87;99118.00;4907939;29;8882;-78
2022/12/07 06:19:41;;;;;;;;;23.40;22.80;;;;;10.71;63.36;99121.34;4893791;29;8900;-78
2022/12/07 06:22:11;;;;;;;;;20.00;18.40;;;;;10.85;62.92;99124.72;4878029;29;8975;-79
2022/12/07 06:24:40;;;;;;;;;23.80;22.60;;;;;11.10;62.37;99127.09;4849565;29;8901;-80
2022/12/07 06:27:09;;;;;;;;;22.00;22.00;;;;;11.08;61.77;99121.03;4908116;29;9087;-79
2022/12/07 06:29:38;;;;;;;;;24.00;23.00;;;;;10.95;62.24;99119.41;4907212;29;8906;-78
2022/12/07 06:32:07;;;;;;;;;35.40;34.00;;;;;10.96;62.14;99121.97;4912241;29;8860;-79
2022/12/07 06:34:37;;;;;;;;;63.50;52.50;;;;;11.04;61.57;99122.81;4924909;29;8905;-80
2022/12/07 06:37:06;;;;;;;;;65.25;53.25;;;;;10.83;62.84;99126.47;4924161;29;8883;-82
2022/12/07 06:39:35;;;;;;;;;85.33;64.00;;;;;10.86;62.18;99128.16;4903845;29;8942;-78
2022/12/07 06:42:03;;;;;;;;;70.00;53.00;;;;;10.87;62.05;99119.47;4911374;29;8998;-80
2022/12/07 06:44:32;;;;;;;;;64.25;51.50;;;;;10.91;62.09;99122.03;4911577;29;8876;-78
2022/12/07 06:47:01;;;;;;;;;59.75;47.50;;;;;10.66;62.81;99125.72;4895453;29;8945;-80
2022/12/07 06:49:52;;;;;;;;;47.75;40.50;;;;;10.83;62.10;99116.03;4911458;29;8965;-80
2022/12/07 06:52:20;;;;;;;;;32.75;29.50;;;;;10.69;62.63;99112.66;4911298;29;8893;-79
2022/12/07 06:54:49;;;;;;;;;38.40;31.20;;;;;10.70;62.81;99110.03;4912045;29;9714;-79
2022/12/07 06:57:20;;;;;;;;;33.80;28.80;;;;;10.79;62.56;99111.69;4911299;29;8875;-79
2022/12/07 06:59:48;;;;;;;;;21.20;19.40;;;;;10.92;61.92;99110.69;4908821;29;8877;-79
2022/12/07 07:02:17;;;;;;;;;32.40;28.80;;;;;11.05;62.12;99111.47;4878046;29;8869;-80
2022/12/07 07:04:47;;;;;;;;;40.50;34.75;;;;;10.96;62.73;99110.69;4898561;29;8909;-80
2022/12/07 07:07:17;;;;;;;;;43.00;38.00;;;;;11.06;61.83;99120.19;4892190;29;8912;-77
2022/12/07 07:09:45;;;;;;;;;33.60;28.80;;;;;11.15;61.37;99117.44;4909630;29;8869;-82
2022/12/07 07:12:14;;;;;;;;;33.00;29.80;;;;;11.39;61.07;99115.50;4893151;29;8993;-80
2022/12/07 07:14:43;;;;;;;;;36.40;31.80;;;;;11.17;61.81;99109.63;4875923;29;8901;-78
2022/12/07 07:17:11;;;;;;;;;32.40;29.00;;;;;11.04;61.71;99114.97;4875897;29;9074;-80
2022/12/07 07:19:40;;;;;;;;;37.25;32.00;;;;;11.00;61.72;99115.88;4891237;29;8875;-79
2022/12/07 07:22:09;;;;;;;;;24.75;19.00;;;;;11.14;61.59;99113.13;4890791;29;8990;-79
2022/12/07 07:24:39;;;;;;;;;41.25;36.50;;;;;11.36;61.55;99115.50;4891059;29;8909;-78
2022/12/07 07:27:08;;;;;;;;;27.00;27.00;;;;;11.34;61.36;99125.97;4880001;29;8869;-78
2022/12/07 07:29:36;;;;;;;;;24.80;24.80;;;;;11.29;61.73;99120.81;4898831;29;8899;-76
2022/12/07 07:32:05;;;;;;;;;23.40;20.40;;;;;11.44;61.02;99121.53;4902436;29;8903;-77
2022/12/07 07:34:34;;;;;;;;;21.00;20.60;;;;;11.44;61.46;99126.75;4875398;29;8969;-77
2022/12/07 07:37:03;;;;;;;;;15.80;13.40;;;;;11.50;60.62;99127.53;4892667;29;8905;-78
2022/12/07 07:39:32;;;;;;;;;23.20;19.60;;;;;11.63;60.51;99123.03;4879847;29;8937;-76
2022/12/07 07:42:01;;;;;;;;;23.00;20.60;;;;;11.76;60.55;99125.50;4874899;29;8877;-77
2022/12/07 07:44:33;;;;;;;;;22.00;19.80;;;;;11.85;59.66;99114.94;4879493;29;8855;-76
2022/12/07 07:47:03;;;;;;;;;21.40;18.60;;;;;11.85;59.96;99115.81;4878914;29;8875;-78
2022/12/07 07:49:32;;;;;;;;;23.40;19.80;;;;;11.61;61.09;99114.38;4878878;29;8937;-79
2022/12/07 07:52:01;;;;;;;;;18.00;17.00;;;;;11.52;61.14;99119.69;4894038;29;8883;-78
2022/12/07 07:54:30;;;;;;;;;16.60;16.60;;;;;11.45;60.81;99120.63;4879008;29;8887;-77
2022/12/07 07:56:58;;;;;;;;;20.40;18.60;;;;;11.29;61.19;99126.03;4879051;29;8923;-76
2022/12/07 07:59:29;;;;;;;;;20.40;18.80;;;;;11.48;61.76;99128.44;4894564;29;8867;-79
2022/12/07 08:01:57;;;;;;;;;21.00;18.60;;;;;11.40;61.33;99131.13;4913783;29;8930;-77
2022/12/07 08:04:26;;;;;;;;;24.40;22.20;;;;;11.44;60.92;99135.44;4899016;29;8879;-79
2022/12/07 08:06:55;;;;;;;;;22.20;20.00;;;;;11.50;61.15;99126.69;4914516;29;8871;-79
2022/12/07 08:09:23;;;;;;;;;21.80;21.00;;;;;11.57;60.99;99133.56;4882632;29;9601;-79
2022/12/07 08:11:52;;;;;;;;;24.80;23.20;;;;;11.64;60.60;99122.16;4914444;29;8918;-78
2022/12/07 08:14:21;;;;;;;;;20.80;20.60;;;;;11.52;61.36;99133.59;4898614;29;8892;-80
2022/12/07 08:16:50;;;;;;;;;24.20;22.40;;;;;11.56;60.83;99138.81;4895304;29;8858;-78
2022/12/07 08:19:19;;;;;;;;;22.60;21.80;;;;;11.58;61.13;99144.88;4896525;29;8870;-78
2022/12/07 08:21:48;;;;;;;;;21.40;21.40;;;;;11.67;60.93;99155.22;4908506;29;8985;-79
2022/12/07 08:24:17;;;;;;;;;30.60;27.20;;;;;11.71;60.55;99159.53;4903455;29;8862;-80
2022/12/07 08:26:45;;;;;;;;;35.20;30.40;;;;;11.82;61.12;99160.25;4871705;29;8898;-80
2022/12/07 08:29:14;;;;;;;;;40.50;34.50;;;;;11.98;59.82;99168.78;4879968;29;8914;-79
2022/12/07 08:31:43;;;;;;;;;43.67;38.67;;;;;12.11;60.11;99171.28;4863705;29;8891;-78
2022/12/07 08:34:13;;;;;;;;;45.00;38.25;;;;;12.18;60.51;99168.56;4879527;29;8903;-80
2022/12/07 08:36:42;;;;;;;;;50.75;42.25;;;;;12.28;60.17;99166.69;4847453;29;9001;-76
2022/12/07 08:39:10;;;;;;;;;51.75;44.50;;;;;12.23;60.26;99168.47;4862796;29;8994;-78
2022/12/07 08:41:59;;;;;;;;;45.25;38.75;;;;;11.94;60.62;99163.66;4840168;29;8943;-79
2022/12/07 08:44:28;;;;;;;;;46.75;37.25;;;;;12.07;60.59;99162.59;4862316;29;8891;-79
2022/12/07 08:47:02;;;;;;;;;48.75;40.00;;;;;12.19;60.55;99166.81;4877524;29;8905;-76
2022/12/07 08:49:36;;;;;;;;;54.75;45.25;;;;;12.15;60.86;99159.88;4877686;29;8902;-76
2022/12/07 08:52:06;;;;;;;;;48.50;40.50;;;;;12.13;60.61;99153.81;4877170;29;8919;-76
2022/12/07 08:54:38;;;;;;;;;11.25;6.25;;;;;12.25;61.40;99164.97;4878204;29;8883;-81
2022/12/07 08:57:07;;;;;;;;;45.75;40.25;;;;;12.15;60.97;99165.97;4877708;29;8887;-78
2022/12/07 08:59:38;;;;;;;;;47.00;40.00;;;;;12.19;61.16;99164.19;4862859;29;8925;-80
2022/12/07 09:02:07;;;;;;;;;48.50;40.50;;;;;12.34;60.92;99163.97;4862456;29;8918;-78
2022/12/07 09:04:37;;;;;;;;;42.00;38.50;;;;;12.48;60.87;99161.19;4895565;29;9597;-77
2022/12/07 09:07:06;;;;;;;;;42.25;36.00;;;;;12.58;60.60;99168.00;4879067;29;8898;-79
2022/12/07 09:09:35;;;;;;;;;50.50;42.75;;;;;12.68;60.77;99159.13;4879171;29;8902;-77
2022/12/07 09:12:04;;;;;;;;;37.50;35.75;;;;;12.73;60.36;99160.81;4896087;29;9691;-78
2022/12/07 09:14:33;;;;;;;;;45.00;36.50;;;;;12.74;60.24;99168.66;4895214;29;8866;-79
2022/12/07 09:17:06;;;;;;;;;43.50;37.00;;;;;12.85;60.34;99165.84;4922833;29;8885;-78
2022/12/07 09:19:37;;;;;;;;;38.25;35.00;;;;;12.72;60.16;99169.53;4906026;29;8910;-75
2022/12/07 09:22:07;;;;;;;;;43.50;38.25;;;;;12.70;60.02;99166.94;4897083;29;8913;-80
2022/12/07 09:24:36;;;;;;;;;24.75;19.75;;;;;12.61;60.49;99160.13;4889010;29;8859;-78
2022/12/07 09:27:05;;;;;;;;;33.50;32.75;;;;;12.62;59.83;99148.75;4915116;29;8887;-79
2022/12/07 09:29:34;;;;;;;;;33.60;30.60;;;;;12.59;60.23;99145.31;4912869;29;8927;-80
2022/12/07 09:32:02;;;;;;;;;31.00;30.00;;;;;12.53;60.65;99135.81;4897249;29;8863;-82
2022/12/07 09:34:40;;;;;;;;;45.25;38.25;;;;;12.41;60.15;99134.25;4912893;29;8856;-79
2022/12/07 09:37:09;;;;;;;;;57.00;46.50;;;;;12.38;60.65;99123.84;4911036;29;8934;-78
2022/12/07 09:39:39;;;;;;;;;56.00;46.50;;;;;12.18;61.21;99126.72;4895340;29;8855;-77
2022/12/07 09:42:28;;;;;;;;;62.75;51.00;;;;;12.29;61.06;99121.38;4893364;29;8894;-78
2022/12/07 09:44:58;;;;;;;;;63.75;50.50;;;;;12.25;61.11;99117.94;4893996;29;9760;-77
2022/12/07 09:47:28;;;;;;;;;59.25;46.50;;;;;12.20;62.02;99117.13;4893619;29;8877;-79
2022/12/07 09:50:06;;;;;;;;;41.25;38.25;;;;;12.25;61.44;99112.69;4895057;29;8981;-78
2022/12/07 09:52:36;;;;;;;;;32.40;29.80;;;;;11.95;61.56;99110.50;4893571;29;8862;-78
2022/12/07 09:55:12;;;;;;;;;25.20;22.40;;;;;12.02;61.72;99117.34;4900500;29;8856;-78
2022/12/07 09:57:42;;;;;;;;;25.20;20.20;;;;;12.05;62.25;99114.72;4896273;29;8905;-78
2022/12/07 10:00:16;;;;;;;;;22.60;19.40;;;;;12.16;62.43;99119.81;4896202;29;8871;-79
2022/12/07 10:02:48;;;;;;;;;21.40;20.40;;;;;12.23;61.82;99119.69;4912108;29;8883;-80
2022/12/07 10:05:24;;;;;;;;;25.20;23.60;;;;;12.15;60.91;99116.31;4897352;29;8979;-80
2022/12/07 10:07:53;;;;;;;;;23.40;22.60;;;;;12.02;61.61;99122.59;4896833;29;8857;-79
2022/12/07 10:10:26;;;;;;;;;25.40;22.00;;;;;11.99;62.54;99125.25;4899926;29;8999;-78
2022/12/07 10:12:58;;;;;;;;;23.80;20.40;;;;;12.13;61.35;99125.91;4904197;29;8872;-78
2022/12/07 10:15:42;;;;;;;;;33.00;27.00;;;;;12.37;61.11;99122.09;4906903;29;8923;-77
2022/12/07 10:18:31;;;;;;;;;34.80;30.00;;;;;12.51;60.82;99128.88;4822511;29;9054;-79
2022/12/07 10:21:07;;;;;;;;;38.20;32.00;;;;;12.52;61.49;99126.25;4836405;29;8949;-79
2022/12/07 10:23:36;;;;;;;;;33.00;32.60;;;;;12.44;61.01;99123.75;4821441;29;8930;-80
2022/12/07 10:26:26;;;;;;;;;35.80;31.80;;;;;12.79;61.27;99129.31;4806538;29;9639;-79
2022/12/07 10:28:55;;;;;;;;;49.75;39.25;;;;;12.57;60.94;99126.16;4821011;29;8871;-80
2022/12/07 10:31:24;;;;;;;;;46.75;41.75;;;;;12.57;60.74;99129.66;4805697;29;8883;-78
2022/12/07 10:33:56;;;;;;;;;53.00;42.75;;;;;12.63;61.04;99129.56;4776354;29;8879;-79
2022/12/07 10:36:28;;;;;;;;;51.75;43.25;;;;;12.60;60.48;99133.97;4821322;29;8979;-80
2022/12/07 10:39:01;;;;;;;;;59.75;46.25;;;;;12.66;61.25;99128.63;4814113;29;8881;-79
2022/12/07 10:41:31;;;;;;;;;59.75;48.25;;;;;12.55;60.44;99125.31;4823600;29;8880;-78
2022/12/07 10:43:59;;;;;;;;;63.50;50.00;;;;;12.56;61.09;99117.47;4838792;29;8891;-81
2022/12/07 10:47:06;;;;;;;;;58.50;49.50;;;;;12.77;60.76;99110.16;4823743;29;8886;-79
2022/12/07 10:50:03;;;;;;;;;55.25;45.75;;;;;12.83;60.92;99110.91;4772410;29;8932;-79
2022/12/07 10:53:06;;;;;;;;;62.50;52.25;;;;;12.91;61.11;99099.44;4802683;29;8885;-79
2022/12/07 10:55:53;;;;;;;;;64.50;52.00;;;;;13.01;61.56;99104.50;4815778;29;8890;-78
2022/12/07 10:58:37;;;;;;;;;55.50;46.50;;;;;12.90;61.17;99095.13;4842233;29;8893;-79
2022/12/07 11:01:15;;;;;;;;;59.50;47.75;;;;;12.99;61.02;99084.50;4842889;29;9017;-79
2022/12/07 11:03:57;;;;;;;;;41.75;37.75;;;;;13.01;61.07;99086.19;4846753;29;9750;-79
2022/12/07 11:06:35;;;;;;;;;55.25;44.75;;;;;13.10;60.67;99095.63;4865063;29;8953;-78
2022/12/07 11:09:26;;;;;;;;;54.25;43.25;;;;;13.20;60.36;99094.56;4846438;29;8886;-79
2022/12/07 11:12:23;;;;;;;;;40.50;36.75;;;;;13.14;60.62;99094.69;4818499;29;8942;-78
2022/12/07 11:14:57;;;;;;;;;36.60;34.80;;;;;12.76;60.20;99088.38;4816898;29;8928;-79
2022/12/07 11:17:35;;;;;;;;;42.00;37.75;;;;;13.04;59.78;99093.09;4817154;29;9056;-78
2022/12/07 11:20:21;;;;;;;;;36.00;34.80;;;;;12.81;60.28;99085.66;4802972;29;8878;-77
2022/12/07 11:22:57;;;;;;;;;34.60;32.40;;;;;12.68;60.74;99095.47;4787105;29;8910;-79
2022/12/07 11:25:33;;;;;;;;;37.40;30.00;;;;;12.86;60.07;99091.69;4817582;29;8901;-79
2022/12/07 11:28:17;;;;;;;;;31.40;29.00;;;;;13.05;60.55;99093.09;4857191;29;8870;-77
2022/12/07 11:30:54;;;;;;;;;34.80;31.60;;;;;12.92;59.77;99095.97;4857071;29;8885;-76
2022/12/07 11:33:30;;;;;;;;;33.60;32.60;;;;;12.76;60.44;99097.94;4857371;29;9000;-79
2022/12/07 11:36:17;;;;;;;;;45.75;37.75;;;;;12.94;60.12;99081.09;4841688;29;8870;-78
2022/12/07 11:38:53;;;;;;;;;43.25;37.50;;;;;12.92;59.91;99090.72;4856971;29;8882;-79
2022/12/07 11:41:29;;;;;;;;;43.00;38.25;;;;;13.17;59.99;99084.13;4856393;29;8889;-77
2022/12/07 11:44:05;;;;;;;;;45.50;36.50;;;;;13.28;60.05;99091.81;4871680;29;8950;-77
2022/12/07 11:46:48;;;;;;;;;30.00;23.00;;;;;13.39;59.19;99091.63;4856687;29;9008;-78
2022/12/07 11:49:25;;;;;;;;;36.00;32.80;;;;;13.39;59.03;99086.41;4865497;29;8895;-78
2022/12/07 11:52:00;;;;;;;;;38.25;35.50;;;;;13.42;58.59;99089.81;4895135;29;8917;-77
2022/12/07 11:54:35;;;;;;;;;38.00;34.00;;;;;13.32;58.59;99095.25;4910919;29;8863;-77